createdAt,value
2019-02-15T00:04:35.683Z,48.87
2019-02-15T00:09:37.748Z,49.25
2019-02-15T00:14:43.927Z,49.28
2019-02-15T00:19:46.395Z,49.23
2019-02-15T00:24:48.476Z,49.35
2019-02-15T00:29:50.568Z,49.40
2019-02-15T00:34:51.904Z,49.61
2019-02-15T00:39:53.201Z,49.63
2019-02-15T00:44:54.571Z,50.01
2019-02-15T00:49:55.872Z,50.05
2019-02-15T00:55:03.441Z,50.61
2019-02-15T01:05:34.378Z,50.54
2019-02-15T01:10:36.701Z,51.11
2019-02-15T01:15:38.003Z,51.36
2019-02-15T01:20:39.321Z,51.52
2019-02-15T01:25:41.839Z,51.94
2019-02-15T01:30:49.408Z,52.02
2019-02-15T01:35:50.722Z,52.30
2019-02-15T01:40:53.690Z,52.15
2019-02-15T01:45:59.052Z,52.34
2019-02-15T01:51:00.384Z,52.51
2019-02-15T01:56:01.696Z,52.27
2019-02-15T02:01:03.049Z,52.22
2019-02-15T02:06:04.543Z,52.26
2019-02-15T02:11:07.210Z,52.20
2019-02-15T02:16:08.512Z,52.20
2019-02-15T02:21:09.854Z,52.53
2019-02-15T02:26:11.959Z,52.57
2019-02-15T02:31:13.300Z,52.41
2019-02-15T02:36:15.438Z,52.66
2019-02-15T02:41:16.801Z,52.79
2019-02-15T02:46:18.388Z,52.83
2019-02-15T02:51:19.790Z,52.81
2019-02-15T02:56:21.894Z,53.11
2019-02-15T03:01:23.301Z,53.10
2019-02-15T03:06:24.583Z,52.91
2019-02-15T03:11:25.927Z,53.20
2019-02-15T03:16:27.269Z,53.39
2019-02-15T03:21:28.701Z,53.39
2019-02-15T03:26:30.155Z,53.67
2019-02-15T03:31:31.566Z,53.77
2019-02-15T03:36:44.821Z,53.90
2019-02-15T03:41:46.350Z,54.00
2019-02-15T03:46:47.850Z,53.88
2019-02-15T03:51:49.194Z,54.62
2019-02-15T03:56:50.665Z,55.75
2019-02-15T04:01:52.051Z,55.98
2019-02-15T04:06:53.373Z,56.10
2019-02-15T04:11:54.682Z,56.67
2019-02-15T04:16:56.016Z,56.04
2019-02-15T04:21:57.946Z,56.87
2019-02-15T04:26:59.284Z,56.34
2019-02-15T04:32:00.604Z,56.36
2019-02-15T04:37:01.929Z,57.13
2019-02-15T04:42:03.257Z,57.35
2019-02-15T04:47:04.542Z,57.05
2019-02-15T04:52:05.921Z,56.58
2019-02-15T04:57:07.382Z,56.62
2019-02-15T05:02:08.769Z,56.67
2019-02-15T05:07:10.109Z,57.09
2019-02-15T05:12:11.467Z,57.33
2019-02-15T05:17:12.748Z,56.46
2019-02-15T05:22:14.078Z,56.21
2019-02-15T05:27:15.456Z,56.53
2019-02-15T05:32:17.286Z,55.97
2019-02-15T05:37:18.701Z,56.27
2019-02-15T05:42:20.017Z,56.52
2019-02-15T05:47:21.393Z,56.88
2019-02-15T05:52:22.765Z,56.95
2019-02-15T05:57:24.218Z,57.18
2019-02-15T06:02:25.565Z,57.19
2019-02-15T06:07:26.900Z,57.24
2019-02-15T06:12:28.348Z,57.76
2019-02-15T06:17:29.813Z,57.08
2019-02-15T06:22:31.251Z,56.88
2019-02-15T06:27:32.557Z,57.45
2019-02-15T06:32:33.885Z,57.05
2019-02-15T06:37:35.214Z,56.81
2019-02-15T06:42:36.533Z,56.55
2019-02-15T06:47:37.848Z,56.64
2019-02-15T06:52:39.201Z,56.58
2019-02-15T06:57:40.523Z,56.62
2019-02-15T07:02:41.869Z,56.59
2019-02-15T07:07:43.202Z,57.59
2019-02-15T07:12:44.516Z,59.41
2019-02-15T07:17:45.874Z,59.56
2019-02-15T07:22:47.265Z,59.20
2019-02-15T07:27:48.651Z,58.85
2019-02-15T07:32:49.981Z,58.32
2019-02-15T07:37:51.301Z,58.39
2019-02-15T07:42:52.624Z,57.81
2019-02-15T07:47:53.922Z,57.31
2019-02-15T07:52:55.273Z,57.00
2019-02-15T07:57:56.573Z,56.21
2019-02-15T08:02:57.935Z,55.78
2019-02-15T08:07:59.256Z,55.52
2019-02-15T08:13:01.343Z,55.38
2019-02-15T08:18:02.656Z,55.00
2019-02-15T08:23:03.981Z,54.99
2019-02-15T08:28:05.269Z,55.40
2019-02-15T08:33:06.593Z,54.89
2019-02-15T08:38:08.656Z,54.66
2019-02-15T08:43:09.957Z,54.57
2019-02-15T08:48:11.313Z,54.85
2019-02-15T08:53:12.589Z,54.25
2019-02-15T08:58:13.878Z,54.05
2019-02-15T09:03:15.199Z,54.15
2019-02-15T09:08:16.552Z,54.52
2019-02-15T09:13:17.872Z,54.15
2019-02-15T09:18:19.241Z,54.16
2019-02-15T09:23:20.573Z,54.09
2019-02-15T09:33:49.021Z,55.23
2019-02-15T09:38:50.337Z,53.84
2019-02-15T09:43:52.432Z,53.38
2019-02-15T09:48:53.736Z,52.99
2019-02-15T09:53:55.045Z,52.82
2019-02-15T09:58:57.157Z,52.52
2019-02-15T10:03:58.527Z,50.78
2019-02-15T10:08:59.854Z,50.68
2019-02-15T10:14:01.170Z,48.97
2019-02-15T10:19:02.484Z,49.95
2019-02-15T10:24:04.280Z,48.52
2019-02-15T10:29:05.605Z,49.69
2019-02-15T10:34:07.653Z,49.40
2019-02-15T10:39:09.014Z,49.30
2019-02-15T10:44:10.341Z,47.63
2019-02-15T10:49:11.642Z,48.08
2019-02-15T10:54:12.960Z,45.82
2019-02-15T10:59:14.259Z,47.81
2019-02-15T11:04:15.578Z,46.42
2019-02-15T11:09:16.881Z,46.04
2019-02-15T11:14:18.226Z,45.85
2019-02-15T11:19:19.544Z,45.45
2019-02-15T11:24:21.602Z,47.62
2019-02-15T11:29:22.905Z,45.40
2019-02-15T11:34:24.948Z,46.67
2019-02-15T11:39:26.246Z,46.17
2019-02-15T11:44:28.300Z,45.28
2019-02-15T11:49:29.605Z,43.85
2019-02-15T11:54:30.943Z,45.26
2019-02-15T11:59:32.977Z,41.52
2019-02-15T12:04:34.330Z,41.79
2019-02-15T12:09:35.647Z,43.40
2019-02-15T12:14:36.959Z,43.61
2019-02-15T12:19:38.340Z,39.07
2019-02-15T12:24:41.205Z,40.83
2019-02-15T12:29:42.487Z,42.14
2019-02-15T12:34:43.783Z,41.28
2019-02-15T12:39:45.094Z,38.44
2019-02-15T12:44:46.468Z,37.97
2019-02-15T12:49:48.096Z,37.05
2019-02-15T12:54:49.425Z,35.53
2019-02-15T12:59:51.466Z,37.53
2019-02-15T13:04:52.764Z,38.52
2019-02-15T13:09:54.107Z,34.05
2019-02-15T13:14:55.412Z,37.49
2019-02-15T13:19:57.645Z,33.83
2019-02-15T13:24:58.993Z,35.21
2019-02-15T13:30:00.360Z,35.47
2019-02-15T13:35:01.618Z,34.05
2019-02-15T13:40:02.948Z,33.59
2019-02-15T13:45:04.250Z,31.52
2019-02-15T13:50:05.547Z,32.21
2019-02-15T13:55:06.850Z,32.18
2019-02-15T14:00:10.856Z,31.35
2019-02-15T14:05:12.182Z,29.27
2019-02-15T14:10:13.496Z,30.57
2019-02-15T14:15:14.817Z,29.92
2019-02-15T14:20:16.097Z,29.29
2019-02-15T14:25:18.172Z,27.93
2019-02-15T14:30:27.741Z,29.21
2019-02-15T14:35:29.821Z,28.56
2019-02-15T14:40:31.136Z,29.09
2019-02-15T14:45:32.437Z,29.06
2019-02-15T14:50:33.729Z,27.97
2019-02-15T14:55:35.019Z,28.16
2019-02-15T15:00:37.040Z,28.79
2019-02-15T15:05:38.343Z,28.57
2019-02-15T15:10:40.419Z,28.92
2019-02-15T15:15:41.720Z,28.93
2019-02-15T15:20:43.013Z,28.26
2019-02-15T15:25:45.084Z,28.28
2019-02-15T15:30:46.398Z,28.27
2019-02-15T15:35:48.421Z,27.95
2019-02-15T15:40:49.736Z,27.72
2019-02-15T15:45:51.780Z,27.59
2019-02-15T15:50:53.856Z,27.72
2019-02-15T15:55:55.164Z,27.77
2019-02-15T16:00:57.193Z,27.72
2019-02-15T16:06:00.201Z,27.58
2019-02-15T16:10:59.820Z,28.54
2019-02-15T16:16:01.152Z,29.77
2019-02-15T16:21:02.965Z,30.37
2019-02-15T16:26:04.859Z,30.52
2019-02-15T16:31:06.216Z,30.78
2019-02-15T16:36:08.557Z,30.46
2019-02-15T16:41:10.602Z,30.26
2019-02-15T16:46:19.705Z,30.12
2019-02-15T16:51:30.156Z,30.70
2019-02-15T16:56:43.685Z,30.48
2019-02-15T17:01:45.880Z,30.66
2019-02-15T17:06:47.924Z,30.96
2019-02-15T17:11:55.071Z,31.00
2019-02-15T17:16:58.207Z,31.63
2019-02-15T17:22:00.014Z,32.11
2019-02-15T17:27:05.187Z,31.99
2019-02-15T17:32:10.542Z,32.29
2019-02-15T17:37:12.368Z,32.79
2019-02-15T17:42:14.489Z,33.03
2019-02-15T17:47:16.846Z,33.25
2019-02-15T17:52:18.223Z,33.58
2019-02-15T17:57:19.994Z,33.85
2019-02-15T18:02:21.641Z,33.97
2019-02-15T18:07:23.030Z,34.41
2019-02-15T18:12:24.401Z,34.61
2019-02-15T18:17:25.767Z,34.89
2019-02-15T18:22:28.241Z,35.04
2019-02-15T18:27:31.608Z,35.32
2019-02-15T18:32:33.805Z,36.15
2019-02-15T18:37:35.919Z,36.00
2019-02-15T18:42:41.903Z,36.11
2019-02-15T18:47:43.368Z,36.25
2019-02-15T18:52:44.786Z,36.48
2019-02-15T18:57:47.389Z,36.58
2019-02-15T19:02:48.802Z,36.76
2019-02-15T19:07:52.010Z,36.92
2019-02-15T19:12:53.619Z,37.19
2019-02-15T19:18:01.031Z,37.57
2019-02-15T19:23:03.133Z,37.88
2019-02-15T19:28:05.547Z,37.69
2019-02-15T19:33:10.577Z,37.96
2019-02-15T19:38:11.879Z,38.38
2019-02-15T19:43:13.383Z,38.39
2019-02-15T19:48:18.197Z,39.11
2019-02-15T19:53:23.504Z,39.17
2019-02-15T19:58:27.223Z,39.05
2019-02-15T20:03:32.723Z,39.45
2019-02-15T20:08:39.264Z,39.73
2019-02-15T20:13:43.175Z,39.51
2019-02-15T20:18:51.329Z,39.81
2019-02-15T20:23:59.775Z,40.07
2019-02-15T20:29:06.034Z,40.88
2019-02-15T20:34:07.509Z,41.48
2019-02-15T20:39:09.373Z,41.33
2019-02-15T20:44:10.771Z,40.96
2019-02-15T20:49:13.139Z,41.43
2019-02-15T20:54:14.588Z,41.52
2019-02-15T20:59:16.067Z,41.87
2019-02-15T21:04:17.624Z,41.90
2019-02-15T21:09:19.010Z,41.95
2019-02-15T21:14:20.502Z,42.30
2019-02-15T21:19:21.931Z,42.36
2019-02-15T21:24:23.466Z,42.33
2019-02-15T21:29:25.499Z,42.95
2019-02-15T21:34:27.197Z,43.03
2019-02-15T21:39:28.647Z,43.13
2019-02-15T21:44:30.206Z,43.54
2019-02-15T21:49:31.670Z,43.72
2019-02-15T21:54:33.128Z,43.84
2019-02-15T21:59:34.523Z,43.88
2019-02-15T22:04:35.945Z,43.84
2019-02-15T22:09:37.402Z,44.30
2019-02-15T22:14:38.845Z,44.50
2019-02-15T22:19:40.456Z,44.34
2019-02-15T22:24:41.926Z,44.74
2019-02-15T22:29:43.509Z,45.39
2019-02-15T22:34:44.932Z,45.63
2019-02-15T22:39:46.471Z,45.54
2019-02-15T22:44:49.400Z,45.78
2019-02-15T22:49:50.709Z,46.19
2019-02-15T22:54:52.020Z,46.12
2019-02-15T22:59:54.720Z,46.16
2019-02-15T23:30:50.982Z,46.95
2019-02-15T23:35:53.126Z,46.59
2019-02-15T23:40:54.472Z,46.72
2019-02-15T23:45:55.878Z,46.60
2019-02-15T23:50:57.326Z,46.80
2019-02-15T23:55:58.702Z,46.83
